createdAt,value
2018-08-14T00:00:40.619Z,1.70
2018-08-14T00:03:13.239Z,1.53
2018-08-14T00:05:41.532Z,1.80
2018-08-14T00:08:09.726Z,3.13
2018-08-14T00:10:37.868Z,1.87
2018-08-14T00:13:09.145Z,1.40
2018-08-14T00:15:37.444Z,2.10
2018-08-14T00:18:05.830Z,1.40
2018-08-14T00:20:33.978Z,1.40
2018-08-14T00:23:02.125Z,1.70
2018-08-14T00:25:30.788Z,2.03
2018-08-14T00:27:58.931Z,1.67
2018-08-14T00:30:29.143Z,2.13
2018-08-14T00:32:58.420Z,1.77
2018-08-14T00:35:26.715Z,1.97
2018-08-14T00:37:54.946Z,2.70
2018-08-14T00:40:23.775Z,1.57
2018-08-14T00:42:54.235Z,2.63
2018-08-14T00:45:22.374Z,2.37
2018-08-14T00:47:50.859Z,1.77
2018-08-14T00:50:19.135Z,1.80
2018-08-14T00:52:47.839Z,2.00
2018-08-14T00:55:17.212Z,1.67
2018-08-14T00:57:45.659Z,1.60
2018-08-14T01:00:17.795Z,1.50
2018-08-14T01:02:45.990Z,2.10
2018-08-14T01:05:14.204Z,1.80
2018-08-14T01:07:42.427Z,1.97
2018-08-14T01:10:12.418Z,1.50
2018-08-14T01:12:54.721Z,2.27
2018-08-14T01:15:25.126Z,2.83
2018-08-14T01:17:54.060Z,1.70
2018-08-14T01:20:23.350Z,1.53
2018-08-14T01:22:51.694Z,2.67
2018-08-14T01:25:20.894Z,1.80
2018-08-14T01:27:50.563Z,1.90
2018-08-14T01:30:24.100Z,1.80
2018-08-14T01:32:52.264Z,1.87
2018-08-14T01:35:20.436Z,2.43
2018-08-14T01:37:48.780Z,3.07
2018-08-14T01:40:16.955Z,5.50
2018-08-14T01:42:45.183Z,2.43
2018-08-14T01:45:14.509Z,1.83
2018-08-14T01:47:43.013Z,2.10
2018-08-14T01:50:18.617Z,2.30
2018-08-14T01:52:46.848Z,1.90
2018-08-14T01:55:15.064Z,2.47
2018-08-14T01:57:43.256Z,2.03
2018-08-14T02:00:11.440Z,1.77
2018-08-14T02:02:39.625Z,2.43
2018-08-14T02:05:09.012Z,2.37
2018-08-14T02:07:37.601Z,1.97
2018-08-14T02:10:07.456Z,1.90
2018-08-14T02:12:35.613Z,2.20
2018-08-14T02:15:04.956Z,1.83
2018-08-14T02:17:33.195Z,1.93
2018-08-14T02:20:01.361Z,2.37
2018-08-14T02:22:29.524Z,2.43
2018-08-14T02:24:57.692Z,2.90
2018-08-14T02:27:25.854Z,3.30
2018-08-14T02:29:54.032Z,4.03
2018-08-14T02:32:22.176Z,2.10
2018-08-14T02:34:50.334Z,2.07
2018-08-14T02:37:18.727Z,3.00
2018-08-14T02:39:46.887Z,2.00
2018-08-14T02:42:15.050Z,2.67
2018-08-14T02:44:43.180Z,2.17
2018-08-14T02:47:11.327Z,1.93
2018-08-14T02:49:39.483Z,2.60
2018-08-14T02:52:07.640Z,2.03
2018-08-14T02:54:35.769Z,2.20
2018-08-14T02:57:03.922Z,4.17
2018-08-14T02:59:32.075Z,2.67
2018-08-14T03:02:00.195Z,3.07
2018-08-14T03:04:28.342Z,2.60
2018-08-14T03:06:56.578Z,2.17
2018-08-14T03:09:24.736Z,3.43
2018-08-14T03:11:52.867Z,2.70
2018-08-14T03:14:21.006Z,2.90
2018-08-14T03:16:49.118Z,2.83
2018-08-14T03:19:17.246Z,4.93
2018-08-14T03:21:45.399Z,4.47
2018-08-14T03:24:13.510Z,3.20
2018-08-14T03:26:41.704Z,5.20
2018-08-14T03:29:09.757Z,3.47
2018-08-14T03:31:37.886Z,3.27
2018-08-14T03:34:06.146Z,3.50
2018-08-14T03:36:34.274Z,3.53
2018-08-14T03:39:02.438Z,2.80
2018-08-14T03:41:30.586Z,4.27
2018-08-14T03:43:58.805Z,3.00
2018-08-14T03:46:26.923Z,4.37
2018-08-14T03:48:55.047Z,4.80
2018-08-14T03:51:23.269Z,3.60
2018-08-14T03:53:51.396Z,4.13
2018-08-14T03:56:19.519Z,4.27
2018-08-14T03:58:47.660Z,4.07
2018-08-14T04:01:15.780Z,4.80
2018-08-14T04:03:43.987Z,4.73
2018-08-14T04:06:12.134Z,4.63
2018-08-14T04:08:40.223Z,4.40
2018-08-14T04:11:08.614Z,3.87
2018-08-14T04:13:36.730Z,3.70
2018-08-14T04:16:04.855Z,5.50
2018-08-14T04:18:32.994Z,5.50
2018-08-14T04:21:01.213Z,4.00
2018-08-14T04:23:29.322Z,5.23
2018-08-14T04:25:57.446Z,5.33
2018-08-14T04:28:25.557Z,3.97
2018-08-14T04:30:53.695Z,5.47
2018-08-14T04:33:21.818Z,5.77
2018-08-14T04:35:49.944Z,4.97
2018-08-14T04:38:18.062Z,4.33
2018-08-14T04:40:46.201Z,4.80
2018-08-14T04:43:14.311Z,6.97
2018-08-14T04:45:42.478Z,4.10
2018-08-14T04:48:10.588Z,4.10
2018-08-14T04:50:38.711Z,4.40
2018-08-14T04:53:06.878Z,4.40
2018-08-14T04:55:35.002Z,4.30
2018-08-14T04:58:03.391Z,5.50
2018-08-14T05:00:31.474Z,4.80
2018-08-14T05:02:59.599Z,4.03
2018-08-14T05:05:27.725Z,4.70
2018-08-14T05:07:55.842Z,4.40
2018-08-14T05:10:23.975Z,4.77
2018-08-14T05:12:52.125Z,4.10
2018-08-14T05:15:20.250Z,6.67
2018-08-14T05:17:48.372Z,4.37
2018-08-14T05:20:16.478Z,4.63
2018-08-14T05:22:44.582Z,4.17
2018-08-14T05:25:12.717Z,5.63
2018-08-14T05:27:40.818Z,4.10
2018-08-14T05:30:11.704Z,3.47
2018-08-14T05:32:39.943Z,4.87
2018-08-14T05:35:08.688Z,4.83
2018-08-14T05:37:36.805Z,5.07
2018-08-14T05:40:05.645Z,4.03
2018-08-14T05:42:33.746Z,4.03
2018-08-14T05:45:01.855Z,5.77
2018-08-14T05:47:29.999Z,3.97
2018-08-14T05:49:58.125Z,8.23
2018-08-14T05:52:26.255Z,4.00
2018-08-14T05:54:54.354Z,3.67
2018-08-14T05:57:22.491Z,4.30
2018-08-14T05:59:50.607Z,6.10
2018-08-14T06:02:18.734Z,3.77
2018-08-14T06:04:46.872Z,5.47
2018-08-14T06:07:15.007Z,6.17
2018-08-14T06:09:43.105Z,4.33
2018-08-14T06:12:11.383Z,5.33
2018-08-14T06:14:39.477Z,4.10
2018-08-14T06:17:07.648Z,4.50
2018-08-14T06:19:35.758Z,3.50
2018-08-14T06:22:03.877Z,7.60
2018-08-14T06:24:32.003Z,5.00
2018-08-14T06:27:00.131Z,5.17
2018-08-14T06:29:28.229Z,3.77
2018-08-14T06:31:56.395Z,4.50
2018-08-14T06:34:24.524Z,4.60
2018-08-14T06:36:52.671Z,4.53
2018-08-14T06:39:20.786Z,4.70
2018-08-14T06:41:48.941Z,10.53
2018-08-14T06:44:17.038Z,4.70
2018-08-14T06:46:45.166Z,5.50
2018-08-14T06:49:13.458Z,6.23
2018-08-14T06:51:41.594Z,7.00
2018-08-14T06:54:09.789Z,5.33
2018-08-14T06:56:37.910Z,5.07
2018-08-14T06:59:06.069Z,5.50
2018-08-14T07:01:34.437Z,6.07
2018-08-14T07:04:02.570Z,5.33
2018-08-14T07:06:30.680Z,5.43
2018-08-14T07:08:58.809Z,5.03
2018-08-14T07:11:26.957Z,4.30
2018-08-14T07:13:55.111Z,4.90
2018-08-14T07:16:23.234Z,5.97
2018-08-14T07:18:51.363Z,5.60
2018-08-14T07:21:19.486Z,5.63
2018-08-14T07:23:47.623Z,5.60
2018-08-14T07:26:15.893Z,6.77
2018-08-14T07:28:44.011Z,8.07
2018-08-14T07:31:12.133Z,5.87
2018-08-14T07:33:40.241Z,7.67
2018-08-14T07:36:08.370Z,5.57
2018-08-14T07:38:36.484Z,6.70
2018-08-14T07:41:04.582Z,7.03
2018-08-14T07:43:32.728Z,7.20
2018-08-14T07:46:00.838Z,8.00
2018-08-14T07:48:29.001Z,7.77
2018-08-14T07:50:57.098Z,7.33
2018-08-14T07:53:25.222Z,7.03
2018-08-14T07:55:53.329Z,6.73
2018-08-14T07:58:21.462Z,7.50
2018-08-14T08:00:49.581Z,6.73
2018-08-14T08:03:17.706Z,7.50
2018-08-14T08:05:45.931Z,9.87
2018-08-14T08:08:14.054Z,6.70
2018-08-14T08:10:42.215Z,7.80
2018-08-14T08:13:10.355Z,7.67
2018-08-14T08:15:38.471Z,7.10
2018-08-14T08:18:06.795Z,7.10
2018-08-14T08:20:35.594Z,10.13
2018-08-14T08:23:07.336Z,9.57
2018-08-14T08:25:35.506Z,8.80
2018-08-14T08:28:03.587Z,7.00
2018-08-14T08:30:31.706Z,7.53
2018-08-14T08:32:59.854Z,9.23
2018-08-14T08:35:28.506Z,8.10
2018-08-14T08:37:56.941Z,10.73
2018-08-14T08:40:25.196Z,7.60
2018-08-14T08:42:53.306Z,8.10
2018-08-14T08:45:21.434Z,7.27
2018-08-14T08:47:49.795Z,6.93
2018-08-14T08:50:17.958Z,6.03
2018-08-14T08:52:46.107Z,9.10
2018-08-14T08:55:16.766Z,7.60
2018-08-14T08:57:45.350Z,8.00
2018-08-14T09:00:15.065Z,7.50
2018-08-14T09:02:43.211Z,8.80
2018-08-14T09:05:13.515Z,8.13
2018-08-14T09:07:41.842Z,9.37
2018-08-14T09:10:11.142Z,7.00
2018-08-14T09:12:39.537Z,6.43
2018-08-14T09:15:08.407Z,7.13
2018-08-14T09:17:36.685Z,8.27
2018-08-14T09:20:05.866Z,6.80
2018-08-14T09:22:33.989Z,8.03
2018-08-14T09:25:02.101Z,9.30
2018-08-14T09:27:30.254Z,8.50
2018-08-14T09:29:58.437Z,8.97
2018-08-14T09:32:26.683Z,10.47
2018-08-14T09:34:55.251Z,12.37
2018-08-14T09:37:23.407Z,11.00
2018-08-14T09:39:51.533Z,10.10
2018-08-14T09:42:19.659Z,11.87
2018-08-14T09:44:48.243Z,11.80
2018-08-14T09:47:16.523Z,11.67
2018-08-14T09:49:44.630Z,10.80
2018-08-14T09:52:12.738Z,10.20
2018-08-14T09:54:40.850Z,11.33
2018-08-14T09:57:09.103Z,11.60
2018-08-14T09:59:37.228Z,10.10
2018-08-14T10:02:10.774Z,10.90
2018-08-14T10:04:44.481Z,11.03
2018-08-14T10:07:19.120Z,13.37
2018-08-14T10:09:47.595Z,11.77
2018-08-14T10:12:15.870Z,11.70
2018-08-14T10:14:44.078Z,13.10
2018-08-14T10:17:15.791Z,12.17
2018-08-14T10:19:43.920Z,11.47
2018-08-14T10:22:12.039Z,12.13
2018-08-14T10:24:40.181Z,11.23
2018-08-14T10:27:08.371Z,10.97
2018-08-14T10:29:36.527Z,11.13
2018-08-14T10:32:04.679Z,10.63
2018-08-14T10:34:32.926Z,10.10
2018-08-14T10:37:01.108Z,10.47
2018-08-14T10:39:29.371Z,9.70
2018-08-14T10:41:57.484Z,9.57
2018-08-14T10:44:25.638Z,10.77
2018-08-14T10:46:53.754Z,11.10
2018-08-14T10:49:21.898Z,11.90
2018-08-14T10:51:50.023Z,19.10
2018-08-14T10:54:18.314Z,11.90
2018-08-14T10:56:46.438Z,10.73
2018-08-14T10:59:14.566Z,10.93
2018-08-14T11:01:42.701Z,11.20
2018-08-14T11:04:10.840Z,10.27
2018-08-14T11:06:39.286Z,10.10
2018-08-14T11:09:08.141Z,10.10
2018-08-14T11:11:41.843Z,10.23
2018-08-14T11:14:10.090Z,9.93
2018-08-14T11:16:38.330Z,9.63
2018-08-14T11:19:06.472Z,9.40
2018-08-14T11:21:34.650Z,9.23
2018-08-14T11:24:03.391Z,9.63
2018-08-14T11:26:31.515Z,10.80
2018-08-14T11:28:59.648Z,10.03
2018-08-14T11:31:27.752Z,9.90
2018-08-14T11:33:55.890Z,9.77
2018-08-14T11:36:24.022Z,10.03
2018-08-14T11:38:52.153Z,8.83
2018-08-14T11:41:20.315Z,9.90
2018-08-14T11:43:48.534Z,9.27
2018-08-14T11:46:16.730Z,11.23
2018-08-14T11:48:44.864Z,11.10
2018-08-14T11:51:13.251Z,14.73
2018-08-14T11:53:41.482Z,9.17
2018-08-14T11:56:09.630Z,8.83
2018-08-14T11:58:37.738Z,10.93
2018-08-14T12:01:05.915Z,8.97
2018-08-14T12:03:34.039Z,8.40
2018-08-14T12:06:02.187Z,9.97
2018-08-14T12:08:30.298Z,10.10
2018-08-14T12:10:58.479Z,8.53
2018-08-14T12:13:26.558Z,10.00
2018-08-14T12:15:54.694Z,10.13
2018-08-14T12:18:22.841Z,11.13
2018-08-14T12:20:50.963Z,9.73
2018-08-14T12:23:19.094Z,9.27
2018-08-14T12:25:47.223Z,10.87
2018-08-14T12:28:15.331Z,8.60
2018-08-14T12:30:44.058Z,9.03
2018-08-14T12:33:12.191Z,11.70
2018-08-14T12:35:40.351Z,9.20
2018-08-14T12:38:08.482Z,9.50
2018-08-14T12:40:36.614Z,10.53
2018-08-14T12:43:05.921Z,6.40
2018-08-14T12:45:34.254Z,6.93
2018-08-14T12:48:02.370Z,6.47
2018-08-14T12:50:30.525Z,5.90
2018-08-14T12:52:58.631Z,6.23
2018-08-14T12:55:26.742Z,7.50
2018-08-14T12:57:54.888Z,9.83
2018-08-14T13:00:25.059Z,7.40
2018-08-14T13:02:53.877Z,10.40
2018-08-14T13:05:22.578Z,6.73
2018-08-14T13:07:50.733Z,9.53
2018-08-14T13:10:18.875Z,9.87
2018-08-14T13:12:47.253Z,6.83
2018-08-14T13:15:15.701Z,7.07
2018-08-14T13:18:03.291Z,7.50
2018-08-14T13:20:31.441Z,8.93
2018-08-14T13:22:59.531Z,7.63
2018-08-14T13:25:27.676Z,10.77
2018-08-14T13:27:55.784Z,8.43
2018-08-14T13:30:23.921Z,8.40
2018-08-14T13:32:52.085Z,6.70
2018-08-14T13:35:20.194Z,7.40
2018-08-14T13:37:48.396Z,6.60
2018-08-14T13:40:16.604Z,5.67
2018-08-14T13:42:44.629Z,7.13
2018-08-14T13:45:13.425Z,6.97
2018-08-14T13:47:42.091Z,5.30
2018-08-14T13:50:11.122Z,5.60
2018-08-14T13:52:39.563Z,4.87
2018-08-14T13:55:11.914Z,5.03
2018-08-14T13:57:40.324Z,7.17
2018-08-14T14:00:10.730Z,5.23
2018-08-14T14:02:39.570Z,6.87
2018-08-14T14:05:08.068Z,8.30
2018-08-14T14:07:36.503Z,7.00
2018-08-14T14:10:06.790Z,6.67
2018-08-14T14:12:34.939Z,6.13
2018-08-14T14:15:06.834Z,8.77
2018-08-14T14:17:34.951Z,5.93
2018-08-14T14:20:03.485Z,5.30
2018-08-14T14:22:31.606Z,6.57
2018-08-14T14:24:59.766Z,5.20
2018-08-14T14:27:27.873Z,6.80
2018-08-14T14:29:55.991Z,5.50
2018-08-14T14:32:25.013Z,6.07
2018-08-14T14:34:53.249Z,6.13
2018-08-14T14:37:21.553Z,6.27
2018-08-14T14:39:49.626Z,8.83
2018-08-14T14:42:17.755Z,10.87
2018-08-14T14:44:45.853Z,12.30
2018-08-14T14:47:13.986Z,11.40
2018-08-14T14:49:42.301Z,10.60
2018-08-14T14:52:10.437Z,9.33
2018-08-14T14:54:38.560Z,10.73
2018-08-14T14:57:06.967Z,9.13
2018-08-14T14:59:35.154Z,9.13
2018-08-14T15:02:03.272Z,9.10
2018-08-14T15:04:31.382Z,9.93
2018-08-14T15:06:59.522Z,12.03
2018-08-14T15:09:27.661Z,9.80
2018-08-14T15:11:55.827Z,10.33
2018-08-14T15:14:23.940Z,9.33
2018-08-14T15:16:52.079Z,9.17
2018-08-14T15:19:21.210Z,8.00
2018-08-14T15:21:49.367Z,8.57
2018-08-14T15:24:17.482Z,8.17
2018-08-14T15:26:45.607Z,8.93
2018-08-14T15:29:20.645Z,11.83
2018-08-14T15:31:55.059Z,9.30
2018-08-14T15:34:25.321Z,8.63
2018-08-14T15:36:55.692Z,8.87
2018-08-14T15:39:24.553Z,7.60
2018-08-14T15:41:53.414Z,8.10
2018-08-14T15:44:21.559Z,8.50
2018-08-14T15:46:49.694Z,7.00
2018-08-14T15:49:17.878Z,9.43
2018-08-14T15:51:46.226Z,9.03
2018-08-14T15:54:15.093Z,11.53
2018-08-14T15:56:43.582Z,10.53
2018-08-14T15:59:12.166Z,9.67
2018-08-14T16:01:40.483Z,11.10
2018-08-14T16:04:10.753Z,11.00
2018-08-14T16:06:38.945Z,11.27
2018-08-14T16:09:10.546Z,9.87
2018-08-14T16:11:38.693Z,9.20
2018-08-14T16:14:07.110Z,8.67
2018-08-14T16:16:35.242Z,8.23
2018-08-14T16:19:03.361Z,8.73
2018-08-14T16:21:31.487Z,7.10
2018-08-14T16:23:59.613Z,6.40
2018-08-14T16:26:27.734Z,6.57
2018-08-14T16:28:55.882Z,7.00
2018-08-14T16:31:23.998Z,7.47
2018-08-14T16:33:52.158Z,5.77
2018-08-14T16:36:20.381Z,6.40
2018-08-14T16:38:48.512Z,5.43
2018-08-14T16:41:16.627Z,7.23
2018-08-14T16:43:44.751Z,11.13
2018-08-14T16:46:12.862Z,5.43
2018-08-14T16:48:40.994Z,6.23
2018-08-14T16:51:09.107Z,5.40
2018-08-14T16:53:37.259Z,5.60
2018-08-14T16:56:05.378Z,10.13
2018-08-14T16:58:34.319Z,6.73
2018-08-14T17:01:02.622Z,7.50
2018-08-14T17:03:30.754Z,7.70
2018-08-14T17:06:00.075Z,7.17
2018-08-14T17:08:28.707Z,5.80
2018-08-14T17:10:56.986Z,7.53
2018-08-14T17:13:25.184Z,7.73
2018-08-14T17:15:53.286Z,7.47
2018-08-14T17:18:21.425Z,7.07
2018-08-14T17:20:48.613Z,7.20
2018-08-14T17:23:16.807Z,7.10
2018-08-14T17:25:44.963Z,7.73
2018-08-14T17:28:13.078Z,7.47
2018-08-14T17:30:41.196Z,8.63
2018-08-14T17:33:09.351Z,6.83
2018-08-14T17:35:37.503Z,6.43
2018-08-14T17:38:05.802Z,6.83
2018-08-14T17:40:33.904Z,7.00
2018-08-14T17:43:02.037Z,8.30
2018-08-14T17:45:31.014Z,7.10
2018-08-14T17:48:01.847Z,6.20
2018-08-14T17:50:30.425Z,5.70
2018-08-14T17:52:58.597Z,6.43
2018-08-14T17:55:27.173Z,5.83
2018-08-14T17:57:55.370Z,6.63
2018-08-14T18:00:26.126Z,5.03
2018-08-14T18:02:57.402Z,5.63
2018-08-14T18:05:25.518Z,5.33
2018-08-14T18:07:53.647Z,5.40
2018-08-14T18:10:22.778Z,6.07
2018-08-14T18:12:50.903Z,4.50
2018-08-14T18:15:19.598Z,4.73
2018-08-14T18:17:47.786Z,4.57
2018-08-14T18:20:18.242Z,4.93
2018-08-14T18:22:46.475Z,5.00
2018-08-14T18:25:15.923Z,4.93
2018-08-14T18:27:44.419Z,5.10
2018-08-14T18:30:13.973Z,5.83
2018-08-14T18:32:42.139Z,5.00
2018-08-14T18:35:10.766Z,5.10
2018-08-14T18:37:39.255Z,4.83
2018-08-14T18:40:17.478Z,5.10
2018-08-14T18:42:46.232Z,5.90
2018-08-14T18:45:16.258Z,5.60
2018-08-14T18:47:44.374Z,6.90
2018-08-14T18:50:13.350Z,5.10
2018-08-14T18:52:41.478Z,5.57
2018-08-14T18:55:11.605Z,6.50
2018-08-14T18:57:39.990Z,7.33
2018-08-14T19:00:12.301Z,6.10
2018-08-14T19:02:40.446Z,6.97
2018-08-14T19:05:08.630Z,6.40
2018-08-14T19:07:36.747Z,7.20
2018-08-14T19:10:04.919Z,6.13
2018-08-14T19:12:33.053Z,7.10
2018-08-14T19:15:05.446Z,6.70
2018-08-14T19:17:33.569Z,6.33
2018-08-14T19:20:01.741Z,6.17
2018-08-14T19:22:29.845Z,6.70
2018-08-14T19:24:58.018Z,7.60
2018-08-14T19:27:26.123Z,7.23
2018-08-14T19:29:54.233Z,6.60
2018-08-14T19:32:22.378Z,7.33
2018-08-14T19:34:50.491Z,6.87
2018-08-14T19:37:18.634Z,6.50
2018-08-14T19:42:37.519Z,7.13
2018-08-14T19:47:56.650Z,7.20
2018-08-14T19:50:24.745Z,6.87
2018-08-14T19:52:52.841Z,6.73
2018-08-14T19:55:21.333Z,9.50
2018-08-14T19:57:50.468Z,6.53
2018-08-14T20:00:23.519Z,6.87
2018-08-14T20:02:52.308Z,7.47
2018-08-14T20:05:20.338Z,7.97
2018-08-14T20:07:48.573Z,6.77
2018-08-14T20:10:16.669Z,8.87
2018-08-14T20:12:44.765Z,8.40
2018-08-14T20:15:14.765Z,8.97
2018-08-14T20:17:43.024Z,8.03
2018-08-14T20:20:13.069Z,8.90
2018-08-14T20:22:41.209Z,8.47
2018-08-14T20:25:09.352Z,8.00
2018-08-14T20:27:37.551Z,10.23
2018-08-14T20:30:09.036Z,10.90
2018-08-14T20:32:37.265Z,10.43
2018-08-14T20:35:06.098Z,10.17
2018-08-14T20:37:34.188Z,9.77
2018-08-14T20:40:02.492Z,10.23
2018-08-14T20:42:30.593Z,10.93
2018-08-14T20:44:58.690Z,9.53
2018-08-14T20:47:27.104Z,8.97
2018-08-14T20:49:55.196Z,9.23
2018-08-14T20:52:23.289Z,8.47
2018-08-14T20:54:51.390Z,10.47
2018-08-14T20:57:19.733Z,8.03
2018-08-14T20:59:47.877Z,8.87
2018-08-14T21:02:16.247Z,9.80
2018-08-14T21:04:44.342Z,9.57
2018-08-14T21:07:12.548Z,10.70
2018-08-14T21:09:40.645Z,9.13
2018-08-14T21:12:08.781Z,9.30
2018-08-14T21:14:37.906Z,8.90
2018-08-14T21:17:06.109Z,8.27
2018-08-14T21:19:34.290Z,8.87
2018-08-14T21:22:02.527Z,10.73
2018-08-14T21:24:30.629Z,9.57
2018-08-14T21:26:58.717Z,9.33
2018-08-14T21:29:26.796Z,10.13
2018-08-14T21:31:54.890Z,9.20
2018-08-14T21:34:22.993Z,9.80
2018-08-14T21:36:51.097Z,9.00
2018-08-14T21:39:19.186Z,9.70
2018-08-14T21:41:47.277Z,9.60
2018-08-14T21:44:15.386Z,9.93
2018-08-14T21:46:43.493Z,11.30
2018-08-14T21:49:11.601Z,10.30
2018-08-14T21:51:39.681Z,9.07
2018-08-14T21:54:07.799Z,8.80
2018-08-14T21:56:35.913Z,9.10
2018-08-14T21:59:04.272Z,10.20
2018-08-14T22:01:32.344Z,8.27
2018-08-14T22:04:00.433Z,9.30
2018-08-14T22:06:28.541Z,8.70
2018-08-14T22:08:56.629Z,8.60
2018-08-14T22:11:24.701Z,9.43
2018-08-14T22:13:52.815Z,8.90
2018-08-14T22:16:20.940Z,9.13
2018-08-14T22:18:49.033Z,8.90
2018-08-14T22:21:17.189Z,8.17
2018-08-14T22:23:45.261Z,11.23
2018-08-14T22:26:13.397Z,11.30
2018-08-14T22:28:41.493Z,13.17
2018-08-14T22:31:09.665Z,13.83
2018-08-14T22:33:37.774Z,11.67
2018-08-14T22:36:05.898Z,12.33
2018-08-14T22:38:33.980Z,12.33
2018-08-14T22:41:02.098Z,11.87
2018-08-14T22:43:30.197Z,13.30
2018-08-14T22:45:58.301Z,12.63
2018-08-14T22:48:26.422Z,14.00
2018-08-14T22:50:54.533Z,11.00
2018-08-14T22:53:22.609Z,11.70
2018-08-14T22:55:50.730Z,12.00
2018-08-14T22:58:18.836Z,11.70
2018-08-14T23:00:46.949Z,11.90
2018-08-14T23:03:15.066Z,11.50
2018-08-14T23:05:43.224Z,12.00
2018-08-14T23:08:11.277Z,11.10
2018-08-14T23:10:39.390Z,10.10
2018-08-14T23:13:07.497Z,10.43
2018-08-14T23:15:35.580Z,11.10
2018-08-14T23:18:03.680Z,9.40
2018-08-14T23:20:31.785Z,10.23
2018-08-14T23:22:59.882Z,8.90
2018-08-14T23:25:27.969Z,9.60
2018-08-14T23:27:56.077Z,10.37
2018-08-14T23:30:24.172Z,8.10
2018-08-14T23:32:52.259Z,8.57
2018-08-14T23:35:20.350Z,9.10
2018-08-14T23:37:48.448Z,9.00
2018-08-14T23:40:16.530Z,9.40
2018-08-14T23:42:44.632Z,10.43
2018-08-14T23:45:12.725Z,7.87
2018-08-14T23:47:40.856Z,8.07
2018-08-14T23:50:11.027Z,8.87
2018-08-14T23:52:39.413Z,9.13
2018-08-14T23:55:08.289Z,7.30
2018-08-14T23:57:36.577Z,8.20
